Weather at Westmoreland Airport

Public forecast

Using degrees Celsius for public forecast. Weather courtesy of forecast.io.

Closest aviation weather report (METAR) to Westmoreland Airport

Report is more than 6 hours old.

Closest report is Normanton Airport, 163.6 nm (303.0 km) E. Retrieved 2022/05/12 00:00 UTC (16 days ago):

YNTN 120000Z AUTO 14011KT 9999 // NCD 26/20 Q1011

Closest aviation forecast (TAF) to Westmoreland Airport

Closest forecast is Cairns International Airport, 432.1 nm (800.3 km) E. Retrieved 2022/05/27 12:37 UTC (53 seconds ago):

TAF YBCS 271102Z 2712/2812 20006KT 9999 FEW025 FM280000 13010KT 9999 FEW035 FM280200 03010KT 9999 FEW045 FM280900 18005KT CAVOK